الصفحة الرئيسية
METAR-TAF:

METAR-TAF

مطار :

هوبز, نيومكسيكو, الولايات المتحدة

دائرة عرض: 32-41N, خط طول: 103-13W, ارتفاع: 1115 متر

مراقبة الطقس الحالي

تاريخ ووقت الإصدار 6 دقيقة قبل الساعة 10:55UTC
ريح 6 عقدة من الجنوب الغربي
درجة الحرارة -2°درجة مئوية
الرطوبة 63%
ضغط 1024 hPa
الرؤية: 16.1 كم
سماء صافية

METAR: KHOB 151055Z AUTO 23006KT 10SM CLR M02/M08 A3025 RMK AO2

زمن: 04:01 (11:01 UTC)

توقعات

تاريخ ووقت الإصدار 5ساعات و 41 دقيقة قبل الساعة 05:20UTC
التوقعات صالحة من15 الساعة 06 UTC إلى 16 الساعة 06 UTC
ريح 7 عقدة من الغرب/الشمال الغربي
الرؤية: 10 كم
غيوم متفرقة على ارتفاع 30000 قدم
من 15 الساعة 1800 UTC
ريح 10 عقدة من الجنوب/الجنوب الغربي
الرؤية: 10 كم
غيوم متفرقة على ارتفاع 30000 قدم

TAF: KHOB 150520Z 1506/1606 30007KT P6SM SCT300 FM151800 21010KT P6SM SCT300

أرصاد الطقس والتوقعات من أكثر من 4000 مطار (تقارير الطقس للمطار METAR والتنبؤ بالطقس بالمطارTAF).

المحطات المتاحة هي النقط الصفراء والحمراء على الخريطة.

حرك المؤشر فوق النقطة لمعرفة اسم المحطة.

ثم انقر لمعرفة أرصاد وتوقعات الطقس.

لتغيير الخارطة: اضغط على الأزرار الخضراء مع رمز الصليب الأسود للتكبير. على الزر الأخضر مع شرطة للتصغير، أو على الأسهم الخضراء للخرائط المجاورة.


METAR-TAF: